sensor_id;sensor_type;location;lat;lon;timestamp;P1;durP1;ratioP1;P2;durP2;ratioP2
13967;SDS011;39536;52.198;9.920;2023-09-30T00:00:58;9.47;;;3.67;;
13967;SDS011;39536;52.198;9.920;2023-09-30T00:03:25;7.40;;;4.30;;
13967;SDS011;39536;52.198;9.920;2023-09-30T00:05:52;8.03;;;4.13;;
13967;SDS011;39536;52.198;9.920;2023-09-30T00:08:17;6.13;;;3.47;;
13967;SDS011;39536;52.198;9.920;2023-09-30T00:10:44;9.30;;;4.20;;
13967;SDS011;39536;52.198;9.920;2023-09-30T00:13:11;13.30;;;4.47;;
13967;SDS011;39536;52.198;9.920;2023-09-30T00:15:39;9.63;;;3.93;;
13967;SDS011;39536;52.198;9.920;2023-09-30T00:18:06;8.67;;;4.17;;
13967;SDS011;39536;52.198;9.920;2023-09-30T00:20:34;9.77;;;4.70;;
13967;SDS011;39536;52.198;9.920;2023-09-30T00:23:03;8.60;;;4.57;;
13967;SDS011;39536;52.198;9.920;2023-09-30T00:25:31;9.80;;;4.83;;
13967;SDS011;39536;52.198;9.920;2023-09-30T00:27:57;13.33;;;5.10;;
13967;SDS011;39536;52.198;9.920;2023-09-30T00:30:24;8.67;;;4.97;;
13967;SDS011;39536;52.198;9.920;2023-09-30T00:32:52;11.70;;;5.53;;
13967;SDS011;39536;52.198;9.920;2023-09-30T00:35:19;6.77;;;4.47;;
13967;SDS011;39536;52.198;9.920;2023-09-30T00:37:46;5.93;;;3.63;;
13967;SDS011;39536;52.198;9.920;2023-09-30T00:40:13;12.83;;;4.03;;
13967;SDS011;39536;52.198;9.920;2023-09-30T00:42:39;8.70;;;4.03;;
13967;SDS011;39536;52.198;9.920;2023-09-30T00:45:07;10.60;;;4.47;;
13967;SDS011;39536;52.198;9.920;2023-09-30T00:47:35;11.67;;;5.30;;
13967;SDS011;39536;52.198;9.920;2023-09-30T00:50:03;10.93;;;3.93;;
13967;SDS011;39536;52.198;9.920;2023-09-30T00:52:33;7.77;;;4.73;;
13967;SDS011;39536;52.198;9.920;2023-09-30T00:55:02;9.47;;;4.10;;
13967;SDS011;39536;52.198;9.920;2023-09-30T00:57:30;10.27;;;4.93;;
13967;SDS011;39536;52.198;9.920;2023-09-30T00:59:57;9.23;;;4.40;;
13967;SDS011;39536;52.198;9.920;2023-09-30T01:02:26;10.60;;;4.67;;
13967;SDS011;39536;52.198;9.920;2023-09-30T01:04:52;11.10;;;5.10;;
13967;SDS011;39536;52.198;9.920;2023-09-30T01:07:22;12.87;;;5.00;;
13967;SDS011;39536;52.198;9.920;2023-09-30T01:09:49;10.27;;;5.13;;
13967;SDS011;39536;52.198;9.920;2023-09-30T01:12:16;12.57;;;4.77;;
13967;SDS011;39536;52.198;9.920;2023-09-30T01:14:42;9.57;;;5.03;;
13967;SDS011;39536;52.198;9.920;2023-09-30T01:17:09;7.60;;;4.27;;
13967;SDS011;39536;52.198;9.920;2023-09-30T01:19:39;9.00;;;4.80;;
13967;SDS011;39536;52.198;9.920;2023-09-30T01:22:09;10.83;;;4.87;;
13967;SDS011;39536;52.198;9.920;2023-09-30T01:24:38;9.87;;;4.80;;
13967;SDS011;39536;52.198;9.920;2023-09-30T01:27:06;11.97;;;5.03;;
13967;SDS011;39536;52.198;9.920;2023-09-30T01:29:33;10.13;;;5.10;;
13967;SDS011;39536;52.198;9.920;2023-09-30T01:32:00;8.50;;;5.37;;
13967;SDS011;39536;52.198;9.920;2023-09-30T01:34:26;9.17;;;5.00;;
13967;SDS011;39536;52.198;9.920;2023-09-30T01:36:56;10.93;;;6.03;;
13967;SDS011;39536;52.198;9.920;2023-09-30T01:39:24;12.87;;;5.17;;
13967;SDS011;39536;52.198;9.920;2023-09-30T01:41:51;11.87;;;4.87;;
13967;SDS011;39536;52.198;9.920;2023-09-30T01:44:19;10.87;;;5.77;;
13967;SDS011;39536;52.198;9.920;2023-09-30T01:46:45;15.10;;;5.67;;
13967;SDS011;39536;52.198;9.920;2023-09-30T01:49:12;9.20;;;5.93;;
13967;SDS011;39536;52.198;9.920;2023-09-30T01:51:39;14.03;;;5.73;;
13967;SDS011;39536;52.198;9.920;2023-09-30T01:54:05;10.00;;;6.10;;
13967;SDS011;39536;52.198;9.920;2023-09-30T01:56:33;8.47;;;5.40;;
13967;SDS011;39536;52.198;9.920;2023-09-30T01:59:00;8.27;;;5.70;;
13967;SDS011;39536;52.198;9.920;2023-09-30T02:01:27;9.37;;;5.80;;
13967;SDS011;39536;52.198;9.920;2023-09-30T02:03:53;10.43;;;6.47;;
13967;SDS011;39536;52.198;9.920;2023-09-30T02:06:20;9.23;;;6.20;;
13967;SDS011;39536;52.198;9.920;2023-09-30T02:08:47;9.60;;;5.47;;
13967;SDS011;39536;52.198;9.920;2023-09-30T02:11:13;10.20;;;6.23;;
13967;SDS011;39536;52.198;9.920;2023-09-30T02:13:43;11.87;;;6.43;;
13967;SDS011;39536;52.198;9.920;2023-09-30T02:16:13;12.53;;;6.03;;
13967;SDS011;39536;52.198;9.920;2023-09-30T02:18:41;17.73;;;6.13;;
13967;SDS011;39536;52.198;9.920;2023-09-30T02:21:10;10.13;;;6.27;;
13967;SDS011;39536;52.198;9.920;2023-09-30T02:23:36;8.00;;;5.80;;
13967;SDS011;39536;52.198;9.920;2023-09-30T02:26:03;10.23;;;5.57;;
13967;SDS011;39536;52.198;9.920;2023-09-30T02:28:29;10.67;;;6.47;;
13967;SDS011;39536;52.198;9.920;2023-09-30T02:30:59;10.70;;;5.77;;
13967;SDS011;39536;52.198;9.920;2023-09-30T02:33:26;12.27;;;5.73;;
13967;SDS011;39536;52.198;9.920;2023-09-30T02:35:52;7.43;;;4.90;;
13967;SDS011;39536;52.198;9.920;2023-09-30T02:38:19;14.50;;;6.03;;
13967;SDS011;39536;52.198;9.920;2023-09-30T02:40:46;11.67;;;6.13;;
13967;SDS011;39536;52.198;9.920;2023-09-30T02:43:15;14.77;;;6.77;;
13967;SDS011;39536;52.198;9.920;2023-09-30T02:45:41;16.87;;;6.43;;
13967;SDS011;39536;52.198;9.920;2023-09-30T02:48:10;9.37;;;5.50;;
13967;SDS011;39536;52.198;9.920;2023-09-30T02:50:36;11.83;;;6.53;;
13967;SDS011;39536;52.198;9.920;2023-09-30T02:53:04;13.13;;;5.90;;
13967;SDS011;39536;52.198;9.920;2023-09-30T02:55:31;14.07;;;6.57;;
13967;SDS011;39536;52.198;9.920;2023-09-30T02:57:58;13.70;;;5.57;;
13967;SDS011;39536;52.198;9.920;2023-09-30T03:00:26;14.27;;;6.70;;
13967;SDS011;39536;52.198;9.920;2023-09-30T03:02:57;13.80;;;6.43;;
13967;SDS011;39536;52.198;9.920;2023-09-30T03:05:28;14.93;;;6.07;;
13967;SDS011;39536;52.198;9.920;2023-09-30T03:07:55;12.13;;;5.70;;
13967;SDS011;39536;52.198;9.920;2023-09-30T03:10:22;9.73;;;5.67;;
13967;SDS011;39536;52.198;9.920;2023-09-30T03:12:49;16.13;;;6.03;;
13967;SDS011;39536;52.198;9.920;2023-09-30T03:15:16;16.70;;;6.80;;
13967;SDS011;39536;52.198;9.920;2023-09-30T03:17:43;11.57;;;5.53;;
13967;SDS011;39536;52.198;9.920;2023-09-30T03:20:10;11.00;;;6.00;;
13967;SDS011;39536;52.198;9.920;2023-09-30T03:22:41;10.93;;;5.93;;
13967;SDS011;39536;52.198;9.920;2023-09-30T03:25:09;13.47;;;5.20;;
13967;SDS011;39536;52.198;9.920;2023-09-30T03:27:36;15.37;;;5.67;;
13967;SDS011;39536;52.198;9.920;2023-09-30T03:30:04;14.27;;;7.07;;
13967;SDS011;39536;52.198;9.920;2023-09-30T03:32:32;12.83;;;5.67;;
13967;SDS011;39536;52.198;9.920;2023-09-30T03:34:59;12.90;;;6.10;;
13967;SDS011;39536;52.198;9.920;2023-09-30T03:37:26;14.50;;;6.10;;
13967;SDS011;39536;52.198;9.920;2023-09-30T03:39:54;11.63;;;5.50;;
13967;SDS011;39536;52.198;9.920;2023-09-30T03:42:21;8.70;;;5.90;;
13967;SDS011;39536;52.198;9.920;2023-09-30T03:44:48;11.80;;;5.53;;
13967;SDS011;39536;52.198;9.920;2023-09-30T03:47:15;13.10;;;5.57;;
13967;SDS011;39536;52.198;9.920;2023-09-30T03:49:41;8.10;;;5.77;;
13967;SDS011;39536;52.198;9.920;2023-09-30T03:52:08;15.43;;;6.03;;
13967;SDS011;39536;52.198;9.920;2023-09-30T03:54:35;9.47;;;5.87;;
13967;SDS011;39536;52.198;9.920;2023-09-30T03:57:04;19.67;;;6.23;;
13967;SDS011;39536;52.198;9.920;2023-09-30T03:59:30;14.60;;;6.00;;
13967;SDS011;39536;52.198;9.920;2023-09-30T04:01:57;16.23;;;7.40;;
13967;SDS011;39536;52.198;9.920;2023-09-30T04:04:23;14.40;;;6.17;;
13967;SDS011;39536;52.198;9.920;2023-09-30T04:06:53;14.47;;;5.73;;
13967;SDS011;39536;52.198;9.920;2023-09-30T04:09:20;12.43;;;6.40;;
13967;SDS011;39536;52.198;9.920;2023-09-30T04:11:47;13.80;;;5.37;;
13967;SDS011;39536;52.198;9.920;2023-09-30T04:14:15;13.17;;;5.97;;
13967;SDS011;39536;52.198;9.920;2023-09-30T04:16:42;13.10;;;5.83;;
13967;SDS011;39536;52.198;9.920;2023-09-30T04:19:09;15.97;;;6.30;;
13967;SDS011;39536;52.198;9.920;2023-09-30T04:21:36;18.60;;;6.50;;
13967;SDS011;39536;52.198;9.920;2023-09-30T04:24:04;17.87;;;6.07;;
13967;SDS011;39536;52.198;9.920;2023-09-30T04:26:31;14.57;;;5.97;;
13967;SDS011;39536;52.198;9.920;2023-09-30T04:28:58;15.07;;;6.53;;
13967;SDS011;39536;52.198;9.920;2023-09-30T04:31:27;11.77;;;6.20;;
13967;SDS011;39536;52.198;9.920;2023-09-30T04:33:54;11.60;;;6.03;;
13967;SDS011;39536;52.198;9.920;2023-09-30T04:36:23;14.53;;;5.97;;
13967;SDS011;39536;52.198;9.920;2023-09-30T04:38:49;15.40;;;6.30;;
13967;SDS011;39536;52.198;9.920;2023-09-30T04:41:16;11.80;;;5.20;;
13967;SDS011;39536;52.198;9.920;2023-09-30T04:43:44;14.97;;;5.53;;
13967;SDS011;39536;52.198;9.920;2023-09-30T04:46:11;12.63;;;5.13;;
13967;SDS011;39536;52.198;9.920;2023-09-30T04:48:40;10.37;;;5.00;;
13967;SDS011;39536;52.198;9.920;2023-09-30T04:51:07;12.77;;;5.90;;
13967;SDS011;39536;52.198;9.920;2023-09-30T04:53:34;9.83;;;5.30;;
13967;SDS011;39536;52.198;9.920;2023-09-30T04:56:04;16.37;;;5.93;;
13967;SDS011;39536;52.198;9.920;2023-09-30T04:58:30;14.83;;;5.50;;
13967;SDS011;39536;52.198;9.920;2023-09-30T05:00:57;13.37;;;5.93;;
13967;SDS011;39536;52.198;9.920;2023-09-30T05:03:24;7.60;;;4.97;;
13967;SDS011;39536;52.198;9.920;2023-09-30T05:05:52;9.83;;;4.70;;
13967;SDS011;39536;52.198;9.920;2023-09-30T05:08:20;13.33;;;5.50;;
13967;SDS011;39536;52.198;9.920;2023-09-30T05:10:48;9.33;;;5.00;;
13967;SDS011;39536;52.198;9.920;2023-09-30T05:13:15;15.90;;;5.23;;
13967;SDS011;39536;52.198;9.920;2023-09-30T05:15:42;12.03;;;5.13;;
13967;SDS011;39536;52.198;9.920;2023-09-30T05:18:09;12.37;;;5.47;;
13967;SDS011;39536;52.198;9.920;2023-09-30T05:20:36;13.27;;;4.57;;
13967;SDS011;39536;52.198;9.920;2023-09-30T05:23:05;15.90;;;5.70;;
13967;SDS011;39536;52.198;9.920;2023-09-30T05:25:33;11.10;;;5.67;;
13967;SDS011;39536;52.198;9.920;2023-09-30T05:27:59;7.27;;;3.90;;
13967;SDS011;39536;52.198;9.920;2023-09-30T05:30:26;8.03;;;4.33;;
13967;SDS011;39536;52.198;9.920;2023-09-30T05:32:52;7.07;;;4.23;;
13967;SDS011;39536;52.198;9.920;2023-09-30T05:35:19;12.17;;;4.57;;
13967;SDS011;39536;52.198;9.920;2023-09-30T05:37:47;10.77;;;4.00;;
13967;SDS011;39536;52.198;9.920;2023-09-30T05:40:18;13.53;;;5.20;;
13967;SDS011;39536;52.198;9.920;2023-09-30T05:42:49;10.40;;;4.63;;
13967;SDS011;39536;52.198;9.920;2023-09-30T05:45:16;10.13;;;4.40;;
13967;SDS011;39536;52.198;9.920;2023-09-30T05:47:42;17.63;;;5.10;;
13967;SDS011;39536;52.198;9.920;2023-09-30T05:50:09;10.07;;;3.57;;
13967;SDS011;39536;52.198;9.920;2023-09-30T05:52:39;8.87;;;4.13;;
13967;SDS011;39536;52.198;9.920;2023-09-30T05:55:06;12.80;;;5.30;;
13967;SDS011;39536;52.198;9.920;2023-09-30T05:57:35;11.43;;;4.43;;
13967;SDS011;39536;52.198;9.920;2023-09-30T06:00:02;7.90;;;3.90;;
13967;SDS011;39536;52.198;9.920;2023-09-30T06:02:45;13.57;;;4.80;;
13967;SDS011;39536;52.198;9.920;2023-09-30T06:05:12;10.07;;;4.50;;
13967;SDS011;39536;52.198;9.920;2023-09-30T06:07:40;17.33;;;5.13;;
13967;SDS011;39536;52.198;9.920;2023-09-30T06:10:10;8.27;;;4.97;;
13967;SDS011;39536;52.198;9.920;2023-09-30T06:12:38;13.77;;;5.17;;
13967;SDS011;39536;52.198;9.920;2023-09-30T06:15:05;10.47;;;5.30;;
13967;SDS011;39536;52.198;9.920;2023-09-30T06:17:33;8.70;;;4.53;;
13967;SDS011;39536;52.198;9.920;2023-09-30T06:19:59;8.53;;;4.60;;
13967;SDS011;39536;52.198;9.920;2023-09-30T06:22:34;9.73;;;4.53;;
13967;SDS011;39536;52.198;9.920;2023-09-30T06:25:00;12.77;;;5.03;;
13967;SDS011;39536;52.198;9.920;2023-09-30T06:27:28;10.87;;;5.20;;
13967;SDS011;39536;52.198;9.920;2023-09-30T06:29:56;13.53;;;5.03;;
13967;SDS011;39536;52.198;9.920;2023-09-30T06:32:23;19.73;;;5.93;;
13967;SDS011;39536;52.198;9.920;2023-09-30T06:34:50;16.00;;;5.37;;
13967;SDS011;39536;52.198;9.920;2023-09-30T06:37:17;8.27;;;4.30;;
13967;SDS011;39536;52.198;9.920;2023-09-30T06:39:43;14.80;;;4.90;;
13967;SDS011;39536;52.198;9.920;2023-09-30T06:42:10;16.63;;;5.07;;
13967;SDS011;39536;52.198;9.920;2023-09-30T06:44:37;13.83;;;5.23;;
13967;SDS011;39536;52.198;9.920;2023-09-30T06:47:05;11.90;;;4.67;;
13967;SDS011;39536;52.198;9.920;2023-09-30T06:49:33;12.33;;;5.40;;
13967;SDS011;39536;52.198;9.920;2023-09-30T06:52:00;13.03;;;4.53;;
13967;SDS011;39536;52.198;9.920;2023-09-30T06:54:28;6.83;;;4.53;;
13967;SDS011;39536;52.198;9.920;2023-09-30T06:56:55;6.83;;;4.17;;
13967;SDS011;39536;52.198;9.920;2023-09-30T06:59:21;12.60;;;4.67;;
13967;SDS011;39536;52.198;9.920;2023-09-30T07:01:50;13.70;;;4.60;;
13967;SDS011;39536;52.198;9.920;2023-09-30T07:04:18;12.23;;;4.20;;
13967;SDS011;39536;52.198;9.920;2023-09-30T07:06:45;9.43;;;4.00;;
13967;SDS011;39536;52.198;9.920;2023-09-30T07:09:11;11.63;;;4.40;;
13967;SDS011;39536;52.198;9.920;2023-09-30T07:11:38;10.73;;;4.07;;
13967;SDS011;39536;52.198;9.920;2023-09-30T07:14:05;12.20;;;4.30;;
13967;SDS011;39536;52.198;9.920;2023-09-30T07:16:31;11.13;;;4.63;;
13967;SDS011;39536;52.198;9.920;2023-09-30T07:18:58;12.17;;;4.80;;
13967;SDS011;39536;52.198;9.920;2023-09-30T07:21:26;10.00;;;4.17;;
13967;SDS011;39536;52.198;9.920;2023-09-30T07:23:53;13.33;;;4.00;;
13967;SDS011;39536;52.198;9.920;2023-09-30T07:26:22;10.83;;;4.80;;
13967;SDS011;39536;52.198;9.920;2023-09-30T07:28:50;6.47;;;3.07;;
13967;SDS011;39536;52.198;9.920;2023-09-30T07:31:19;7.93;;;4.03;;
13967;SDS011;39536;52.198;9.920;2023-09-30T07:33:46;8.43;;;3.90;;
13967;SDS011;39536;52.198;9.920;2023-09-30T07:36:13;8.83;;;4.67;;
13967;SDS011;39536;52.198;9.920;2023-09-30T07:38:41;11.80;;;4.60;;
13967;SDS011;39536;52.198;9.920;2023-09-30T07:41:08;8.73;;;4.37;;
13967;SDS011;39536;52.198;9.920;2023-09-30T07:43:35;7.80;;;3.57;;
13967;SDS011;39536;52.198;9.920;2023-09-30T07:46:05;6.40;;;4.33;;
13967;SDS011;39536;52.198;9.920;2023-09-30T07:48:32;11.80;;;4.97;;
13967;SDS011;39536;52.198;9.920;2023-09-30T07:51:00;7.43;;;3.97;;
13967;SDS011;39536;52.198;9.920;2023-09-30T07:53:27;7.27;;;3.60;;
13967;SDS011;39536;52.198;9.920;2023-09-30T07:55:55;13.10;;;3.67;;
13967;SDS011;39536;52.198;9.920;2023-09-30T07:58:22;7.60;;;3.17;;
13967;SDS011;39536;52.198;9.920;2023-09-30T08:00:48;7.93;;;3.83;;
13967;SDS011;39536;52.198;9.920;2023-09-30T08:03:15;8.07;;;3.47;;
13967;SDS011;39536;52.198;9.920;2023-09-30T08:05:42;15.33;;;3.53;;
13967;SDS011;39536;52.198;9.920;2023-09-30T08:08:09;9.17;;;3.67;;
13967;SDS011;39536;52.198;9.920;2023-09-30T08:10:35;10.37;;;3.67;;
13967;SDS011;39536;52.198;9.920;2023-09-30T08:13:05;8.00;;;3.80;;
13967;SDS011;39536;52.198;9.920;2023-09-30T08:15:31;13.27;;;5.37;;
13967;SDS011;39536;52.198;9.920;2023-09-30T08:17:58;8.77;;;4.17;;
13967;SDS011;39536;52.198;9.920;2023-09-30T08:20:25;8.27;;;3.70;;
13967;SDS011;39536;52.198;9.920;2023-09-30T08:22:51;7.83;;;4.13;;
13967;SDS011;39536;52.198;9.920;2023-09-30T08:25:18;9.23;;;4.40;;
13967;SDS011;39536;52.198;9.920;2023-09-30T08:27:45;10.20;;;4.97;;
13967;SDS011;39536;52.198;9.920;2023-09-30T08:30:16;7.70;;;4.57;;
13967;SDS011;39536;52.198;9.920;2023-09-30T08:32:42;11.10;;;4.47;;
13967;SDS011;39536;52.198;9.920;2023-09-30T08:35:09;8.43;;;4.07;;
13967;SDS011;39536;52.198;9.920;2023-09-30T08:37:36;5.87;;;4.40;;
13967;SDS011;39536;52.198;9.920;2023-09-30T08:40:04;12.73;;;4.57;;
13967;SDS011;39536;52.198;9.920;2023-09-30T08:42:34;9.80;;;4.47;;
13967;SDS011;39536;52.198;9.920;2023-09-30T08:45:01;7.43;;;4.10;;
13967;SDS011;39536;52.198;9.920;2023-09-30T08:47:41;8.93;;;4.47;;
13967;SDS011;39536;52.198;9.920;2023-09-30T08:50:08;10.90;;;4.83;;
13967;SDS011;39536;52.198;9.920;2023-09-30T08:52:36;9.80;;;5.30;;
13967;SDS011;39536;52.198;9.920;2023-09-30T08:55:04;10.40;;;4.80;;
13967;SDS011;39536;52.198;9.920;2023-09-30T08:57:33;7.60;;;4.37;;
13967;SDS011;39536;52.198;9.920;2023-09-30T09:00:05;7.67;;;4.30;;
13967;SDS011;39536;52.198;9.920;2023-09-30T09:02:33;9.13;;;4.03;;
13967;SDS011;39536;52.198;9.920;2023-09-30T09:05:02;11.10;;;4.30;;
13967;SDS011;39536;52.198;9.920;2023-09-30T09:07:29;7.67;;;3.93;;
13967;SDS011;39536;52.198;9.920;2023-09-30T09:10:03;7.53;;;4.03;;
13967;SDS011;39536;52.198;9.920;2023-09-30T09:12:31;5.73;;;3.67;;
13967;SDS011;39536;52.198;9.920;2023-09-30T09:14:59;7.27;;;4.10;;
13967;SDS011;39536;52.198;9.920;2023-09-30T09:17:39;14.50;;;4.30;;
13967;SDS011;39536;52.198;9.920;2023-09-30T09:20:09;7.00;;;4.13;;
13967;SDS011;39536;52.198;9.920;2023-09-30T09:22:38;16.93;;;5.53;;
13967;SDS011;39536;52.198;9.920;2023-09-30T09:25:05;9.57;;;4.10;;
13967;SDS011;39536;52.198;9.920;2023-09-30T09:27:33;10.43;;;3.70;;
13967;SDS011;39536;52.198;9.920;2023-09-30T09:30:17;9.23;;;3.50;;
13967;SDS011;39536;52.198;9.920;2023-09-30T09:32:54;8.03;;;4.30;;
13967;SDS011;39536;52.198;9.920;2023-09-30T09:35:32;5.80;;;3.20;;
13967;SDS011;39536;52.198;9.920;2023-09-30T09:38:00;7.33;;;3.23;;
13967;SDS011;39536;52.198;9.920;2023-09-30T09:40:28;5.43;;;2.90;;
13967;SDS011;39536;52.198;9.920;2023-09-30T09:42:57;9.93;;;3.50;;
13967;SDS011;39536;52.198;9.920;2023-09-30T09:45:27;4.73;;;3.00;;
13967;SDS011;39536;52.198;9.920;2023-09-30T09:47:57;6.70;;;3.00;;
13967;SDS011;39536;52.198;9.920;2023-09-30T09:50:24;7.70;;;3.20;;
13967;SDS011;39536;52.198;9.920;2023-09-30T09:52:52;7.63;;;2.87;;
13967;SDS011;39536;52.198;9.920;2023-09-30T09:55:22;5.17;;;3.27;;
13967;SDS011;39536;52.198;9.920;2023-09-30T09:57:49;9.13;;;3.43;;
13967;SDS011;39536;52.198;9.920;2023-09-30T10:00:17;5.70;;;2.93;;
13967;SDS011;39536;52.198;9.920;2023-09-30T10:02:45;4.77;;;3.00;;
13967;SDS011;39536;52.198;9.920;2023-09-30T10:05:12;7.23;;;3.13;;
13967;SDS011;39536;52.198;9.920;2023-09-30T10:07:42;5.90;;;2.90;;
13967;SDS011;39536;52.198;9.920;2023-09-30T10:10:14;3.30;;;2.80;;
13967;SDS011;39536;52.198;9.920;2023-09-30T10:12:44;6.73;;;3.20;;
13967;SDS011;39536;52.198;9.920;2023-09-30T10:18:05;8.23;;;2.97;;
13967;SDS011;39536;52.198;9.920;2023-09-30T10:20:33;9.63;;;3.20;;
13967;SDS011;39536;52.198;9.920;2023-09-30T10:25:52;10.50;;;3.03;;
13967;SDS011;39536;52.198;9.920;2023-09-30T10:28:32;6.27;;;2.50;;
13967;SDS011;39536;52.198;9.920;2023-09-30T10:31:09;5.50;;;2.37;;
13967;SDS011;39536;52.198;9.920;2023-09-30T10:36:47;3.37;;;1.83;;
13967;SDS011;39536;52.198;9.920;2023-09-30T10:39:17;5.63;;;2.77;;
13967;SDS011;39536;52.198;9.920;2023-09-30T10:42:46;6.90;;;2.30;;
13967;SDS011;39536;52.198;9.920;2023-09-30T10:51:00;4.23;;;2.10;;
13967;SDS011;39536;52.198;9.920;2023-09-30T10:53:27;6.67;;;2.00;;
13967;SDS011;39536;52.198;9.920;2023-09-30T10:55:56;3.23;;;1.60;;
13967;SDS011;39536;52.198;9.920;2023-09-30T11:01:10;4.23;;;1.97;;
13967;SDS011;39536;52.198;9.920;2023-09-30T11:03:38;4.07;;;1.83;;
13967;SDS011;39536;52.198;9.920;2023-09-30T11:06:05;3.63;;;1.87;;
13967;SDS011;39536;52.198;9.920;2023-09-30T11:08:32;3.83;;;1.73;;
13967;SDS011;39536;52.198;9.920;2023-09-30T11:11:00;5.00;;;2.33;;
13967;SDS011;39536;52.198;9.920;2023-09-30T11:13:31;4.67;;;2.43;;
13967;SDS011;39536;52.198;9.920;2023-09-30T11:16:01;5.13;;;2.27;;
13967;SDS011;39536;52.198;9.920;2023-09-30T11:18:29;3.10;;;2.30;;
13967;SDS011;39536;52.198;9.920;2023-09-30T11:21:03;3.50;;;2.00;;
13967;SDS011;39536;52.198;9.920;2023-09-30T11:23:31;4.27;;;1.87;;
13967;SDS011;39536;52.198;9.920;2023-09-30T11:25:59;4.00;;;1.63;;
13967;SDS011;39536;52.198;9.920;2023-09-30T11:28:34;4.23;;;1.67;;
13967;SDS011;39536;52.198;9.920;2023-09-30T11:31:03;5.07;;;1.67;;
13967;SDS011;39536;52.198;9.920;2023-09-30T11:33:31;3.93;;;2.07;;
13967;SDS011;39536;52.198;9.920;2023-09-30T11:36:00;2.70;;;1.53;;
13967;SDS011;39536;52.198;9.920;2023-09-30T11:38:28;4.03;;;1.77;;
13967;SDS011;39536;52.198;9.920;2023-09-30T11:41:02;5.17;;;2.67;;
13967;SDS011;39536;52.198;9.920;2023-09-30T11:43:31;6.00;;;2.40;;
13967;SDS011;39536;52.198;9.920;2023-09-30T11:46:07;4.70;;;1.80;;
13967;SDS011;39536;52.198;9.920;2023-09-30T11:48:36;2.20;;;1.40;;
13967;SDS011;39536;52.198;9.920;2023-09-30T11:51:03;3.27;;;1.50;;
13967;SDS011;39536;52.198;9.920;2023-09-30T11:53:30;3.83;;;1.50;;
13967;SDS011;39536;52.198;9.920;2023-09-30T11:55:59;2.40;;;1.63;;
13967;SDS011;39536;52.198;9.920;2023-09-30T11:58:27;3.17;;;1.80;;
13967;SDS011;39536;52.198;9.920;2023-09-30T12:00:57;3.60;;;1.53;;
13967;SDS011;39536;52.198;9.920;2023-09-30T12:03:27;5.67;;;2.20;;
13967;SDS011;39536;52.198;9.920;2023-09-30T12:05:54;3.63;;;1.70;;
13967;SDS011;39536;52.198;9.920;2023-09-30T12:08:21;5.17;;;1.93;;
13967;SDS011;39536;52.198;9.920;2023-09-30T12:10:48;3.60;;;1.83;;
13967;SDS011;39536;52.198;9.920;2023-09-30T12:13:15;4.27;;;2.27;;
13967;SDS011;39536;52.198;9.920;2023-09-30T12:15:42;3.40;;;2.00;;
13967;SDS011;39536;52.198;9.920;2023-09-30T12:18:09;3.23;;;1.50;;
13967;SDS011;39536;52.198;9.920;2023-09-30T12:20:39;3.17;;;1.90;;
13967;SDS011;39536;52.198;9.920;2023-09-30T12:23:08;6.40;;;2.13;;
13967;SDS011;39536;52.198;9.920;2023-09-30T12:25:34;4.60;;;2.40;;
13967;SDS011;39536;52.198;9.920;2023-09-30T12:28:02;3.73;;;2.13;;
13967;SDS011;39536;52.198;9.920;2023-09-30T12:30:30;3.70;;;1.73;;
13967;SDS011;39536;52.198;9.920;2023-09-30T12:32:57;3.27;;;1.97;;
13967;SDS011;39536;52.198;9.920;2023-09-30T12:35:24;5.93;;;2.17;;
13967;SDS011;39536;52.198;9.920;2023-09-30T12:37:52;1.87;;;1.43;;
13967;SDS011;39536;52.198;9.920;2023-09-30T12:40:19;2.77;;;1.47;;
13967;SDS011;39536;52.198;9.920;2023-09-30T12:42:45;3.23;;;1.60;;
13967;SDS011;39536;52.198;9.920;2023-09-30T12:45:12;2.73;;;1.60;;
13967;SDS011;39536;52.198;9.920;2023-09-30T12:47:39;2.50;;;1.60;;
13967;SDS011;39536;52.198;9.920;2023-09-30T12:50:06;2.97;;;2.03;;
13967;SDS011;39536;52.198;9.920;2023-09-30T12:52:34;4.47;;;2.20;;
13967;SDS011;39536;52.198;9.920;2023-09-30T12:55:03;2.03;;;1.50;;
13967;SDS011;39536;52.198;9.920;2023-09-30T12:57:30;2.93;;;2.07;;
13967;SDS011;39536;52.198;9.920;2023-09-30T12:59:56;3.17;;;1.60;;
13967;SDS011;39536;52.198;9.920;2023-09-30T13:02:23;2.77;;;2.00;;
13967;SDS011;39536;52.198;9.920;2023-09-30T13:04:50;3.07;;;1.97;;
13967;SDS011;39536;52.198;9.920;2023-09-30T13:07:17;4.27;;;2.80;;
13967;SDS011;39536;52.198;9.920;2023-09-30T13:09:43;3.97;;;2.30;;
13967;SDS011;39536;52.198;9.920;2023-09-30T13:12:12;3.27;;;2.57;;
13967;SDS011;39536;52.198;9.920;2023-09-30T13:14:39;5.40;;;2.13;;
13967;SDS011;39536;52.198;9.920;2023-09-30T13:17:06;3.43;;;2.00;;
13967;SDS011;39536;52.198;9.920;2023-09-30T13:19:32;2.60;;;1.80;;
13967;SDS011;39536;52.198;9.920;2023-09-30T13:21:59;3.40;;;1.90;;
13967;SDS011;39536;52.198;9.920;2023-09-30T13:24:26;3.90;;;2.10;;
13967;SDS011;39536;52.198;9.920;2023-09-30T13:26:52;3.43;;;2.20;;
13967;SDS011;39536;52.198;9.920;2023-09-30T13:29:20;3.57;;;2.10;;
13967;SDS011;39536;52.198;9.920;2023-09-30T13:31:47;4.33;;;2.40;;
13967;SDS011;39536;52.198;9.920;2023-09-30T13:34:14;6.93;;;2.50;;
13967;SDS011;39536;52.198;9.920;2023-09-30T13:36:41;3.80;;;2.13;;
13967;SDS011;39536;52.198;9.920;2023-09-30T13:39:08;2.77;;;2.00;;
13967;SDS011;39536;52.198;9.920;2023-09-30T13:41:38;5.37;;;2.40;;
13967;SDS011;39536;52.198;9.920;2023-09-30T13:44:05;2.23;;;1.90;;
13967;SDS011;39536;52.198;9.920;2023-09-30T13:46:33;4.87;;;2.23;;
13967;SDS011;39536;52.198;9.920;2023-09-30T13:48:59;5.17;;;2.53;;
13967;SDS011;39536;52.198;9.920;2023-09-30T13:51:26;3.83;;;1.97;;
13967;SDS011;39536;52.198;9.920;2023-09-30T13:53:53;3.37;;;2.13;;
13967;SDS011;39536;52.198;9.920;2023-09-30T13:56:19;3.93;;;2.07;;
13967;SDS011;39536;52.198;9.920;2023-09-30T13:58:46;3.50;;;1.90;;
13967;SDS011;39536;52.198;9.920;2023-09-30T14:01:13;4.37;;;2.23;;
13967;SDS011;39536;52.198;9.920;2023-09-30T14:03:42;4.93;;;2.17;;
13967;SDS011;39536;52.198;9.920;2023-09-30T14:06:09;3.40;;;2.33;;
13967;SDS011;39536;52.198;9.920;2023-09-30T14:08:37;4.00;;;2.13;;
13967;SDS011;39536;52.198;9.920;2023-09-30T14:11:03;3.80;;;2.13;;
13967;SDS011;39536;52.198;9.920;2023-09-30T14:13:30;3.83;;;2.07;;
13967;SDS011;39536;52.198;9.920;2023-09-30T14:15:57;5.00;;;2.80;;
13967;SDS011;39536;52.198;9.920;2023-09-30T14:18:24;3.57;;;2.37;;
13967;SDS011;39536;52.198;9.920;2023-09-30T14:20:52;4.43;;;2.33;;
13967;SDS011;39536;52.198;9.920;2023-09-30T14:23:19;5.30;;;2.83;;
13967;SDS011;39536;52.198;9.920;2023-09-30T14:25:45;3.13;;;2.20;;
13967;SDS011;39536;52.198;9.920;2023-09-30T14:28:12;5.63;;;3.10;;
13967;SDS011;39536;52.198;9.920;2023-09-30T14:30:39;2.40;;;2.20;;
13967;SDS011;39536;52.198;9.920;2023-09-30T14:33:05;3.23;;;2.43;;
13967;SDS011;39536;52.198;9.920;2023-09-30T14:35:32;5.43;;;2.87;;
13967;SDS011;39536;52.198;9.920;2023-09-30T14:38:01;4.00;;;2.00;;
13967;SDS011;39536;52.198;9.920;2023-09-30T14:40:29;5.30;;;2.63;;
13967;SDS011;39536;52.198;9.920;2023-09-30T14:42:56;3.13;;;2.27;;
13967;SDS011;39536;52.198;9.920;2023-09-30T14:45:23;2.40;;;2.20;;
13967;SDS011;39536;52.198;9.920;2023-09-30T14:47:49;3.30;;;2.30;;
13967;SDS011;39536;52.198;9.920;2023-09-30T14:50:16;3.50;;;2.20;;
13967;SDS011;39536;52.198;9.920;2023-09-30T14:52:43;4.47;;;2.77;;
13967;SDS011;39536;52.198;9.920;2023-09-30T14:55:14;2.97;;;2.60;;
13967;SDS011;39536;52.198;9.920;2023-09-30T14:57:41;4.57;;;2.60;;
13967;SDS011;39536;52.198;9.920;2023-09-30T15:00:09;4.70;;;2.20;;
13967;SDS011;39536;52.198;9.920;2023-09-30T15:02:36;3.13;;;2.20;;
13967;SDS011;39536;52.198;9.920;2023-09-30T15:05:05;3.47;;;2.03;;